Time;durP1;ratioP1;P1;durP2;ratioP2;P2;SDS_P1;SDS_P2;PMS_P1;PMS_P2;Temp;Humidity;BMP_temperature;BMP_pressure;BME280_temperature;BME280_humidity;BME280_pressure;Samples;Min_cycle;Max_cycle;Signal;HPM_P1;HPM_P2
2022/12/20 00:01:12;;;;;;;8.68;4.55;;;;;;;;;;5114054;27;20405;-80
2022/12/20 00:03:38;;;;;;;7.28;4.47;;;;;;;;;;5118062;27;20453;-80
2022/12/20 00:06:04;;;;;;;7.78;4.50;;;;;;;;;;5108411;28;20424;-80
2022/12/20 00:08:31;;;;;;;8.02;4.88;;;;;;;;;;5097244;27;20479;-80
2022/12/20 00:10:59;;;;;;;8.30;4.82;;;;;;;;;;5120039;27;20451;-80
2022/12/20 00:13:25;;;;;;;7.60;4.43;;;;;;;;;;5107601;27;20437;-79
2022/12/20 00:16:02;;;;;;;8.48;4.78;;;;;;;;;;5092501;27;20417;-80
2022/12/20 00:18:28;;;;;;;8.20;4.93;;;;;;;;;;5094714;28;20418;-80
2022/12/20 00:20:58;;;;;;;9.48;4.57;;;;;;;;;;5095128;28;20996;-80
2022/12/20 00:23:24;;;;;;;6.40;4.37;;;;;;;;;;5093651;28;21205;-80
2022/12/20 00:25:50;;;;;;;8.68;4.80;;;;;;;;;;5116471;28;20755;-80
2022/12/20 00:28:16;;;;;;;10.50;4.90;;;;;;;;;;5107966;28;20802;-80
2022/12/20 00:30:42;;;;;;;8.57;4.95;;;;;;;;;;5108653;28;20412;-80
2022/12/20 00:33:08;;;;;;;8.75;4.85;;;;;;;;;;5091338;28;20420;-80
2022/12/20 00:35:34;;;;;;;9.13;5.17;;;;;;;;;;5103135;27;20933;-80
2022/12/20 00:38:01;;;;;;;9.55;4.97;;;;;;;;;;5104753;28;20457;-79
2022/12/20 00:40:27;;;;;;;6.90;4.45;;;;;;;;;;5088974;28;20411;-80
2022/12/20 00:42:53;;;;;;;7.18;4.70;;;;;;;;;;5106071;28;20499;-80
2022/12/20 00:45:19;;;;;;;6.40;4.57;;;;;;;;;;5078632;28;20429;-80
2022/12/20 00:47:45;;;;;;;8.88;4.75;;;;;;;;;;5094884;28;20425;-80
2022/12/20 00:50:11;;;;;;;10.43;5.10;;;;;;;;;;5090944;28;20425;-80
2022/12/20 00:52:37;;;;;;;7.53;4.70;;;;;;;;;;5124507;28;20614;-79
2022/12/20 00:55:03;;;;;;;8.02;4.50;;;;;;;;;;5083275;28;20465;-79
2022/12/20 00:57:29;;;;;;;8.20;4.68;;;;;;;;;;5118657;28;20424;-79
2022/12/20 00:59:55;;;;;;;7.87;4.53;;;;;;;;;;5122037;28;20495;-79
2022/12/20 01:02:21;;;;;;;6.13;4.35;;;;;;;;;;5083467;28;20416;-79
2022/12/20 01:04:49;;;;;;;6.18;3.90;;;;;;;;;;5096776;28;20493;-79
2022/12/20 01:07:19;;;;;;;6.90;4.35;;;;;;;;;;5129447;27;20915;-79
2022/12/20 01:09:48;;;;;;;7.03;4.25;;;;;;;;;;5121293;27;20412;-79
2022/12/20 01:12:14;;;;;;;9.65;4.13;;;;;;;;;;5111481;27;20424;-79
2022/12/20 01:14:43;;;;;;;5.53;3.78;;;;;;;;;;5111713;28;20938;-79
2022/12/20 01:17:09;;;;;;;9.00;4.60;;;;;;;;;;5099467;27;20424;-79
2022/12/20 01:19:35;;;;;;;6.78;3.88;;;;;;;;;;5117680;27;20452;-79
2022/12/20 01:22:01;;;;;;;6.17;3.87;;;;;;;;;;5107697;28;20943;-79
2022/12/20 01:24:27;;;;;;;7.13;3.92;;;;;;;;;;5087470;28;20441;-79
2022/12/20 01:26:53;;;;;;;8.30;4.10;;;;;;;;;;5113831;28;20480;-79
2022/12/20 01:29:20;;;;;;;8.57;4.00;;;;;;;;;;5112530;27;20421;-79
2022/12/20 01:31:46;;;;;;;8.65;4.07;;;;;;;;;;5112061;28;20443;-80
2022/12/20 01:34:12;;;;;;;5.88;4.05;;;;;;;;;;5105562;27;20944;-79
2022/12/20 01:36:39;;;;;;;7.18;4.20;;;;;;;;;;5102256;27;20414;-79
2022/12/20 01:39:10;;;;;;;5.68;3.75;;;;;;;;;;5094034;28;20416;-80
2022/12/20 01:41:37;;;;;;;7.45;4.07;;;;;;;;;;5104976;28;20422;-79
2022/12/20 01:44:05;;;;;;;7.15;3.78;;;;;;;;;;5089971;28;20436;-79
2022/12/20 01:46:35;;;;;;;6.60;4.15;;;;;;;;;;5107365;27;20416;-79
2022/12/20 01:49:04;;;;;;;7.13;4.15;;;;;;;;;;5103237;27;20495;-79
2022/12/20 01:51:31;;;;;;;6.38;4.10;;;;;;;;;;5110134;27;20460;-79
2022/12/20 01:54:01;;;;;;;6.00;4.05;;;;;;;;;;5098162;28;20465;-79
2022/12/20 01:56:27;;;;;;;6.75;4.10;;;;;;;;;;5118248;27;20418;-79
2022/12/20 01:58:54;;;;;;;6.25;4.13;;;;;;;;;;5107665;27;20418;-79
2022/12/20 02:01:22;;;;;;;6.97;3.63;;;;;;;;;;5111766;27;20476;-78
2022/12/20 02:03:49;;;;;;;8.43;4.18;;;;;;;;;;5105883;27;20465;-79
2022/12/20 02:06:21;;;;;;;6.50;3.73;;;9.80;99.90;;;;;;5110016;28;20747;-79
2022/12/20 02:08:49;;;;;;;5.65;3.78;;;;;;;;;;5109935;27;20435;-79
2022/12/20 02:11:31;;;;;;;6.25;3.83;;;;;;;;;;5112005;27;20410;-79
2022/12/20 02:14:02;;;;;;;6.70;3.60;;;;;;;;;;5119959;27;20425;-79
2022/12/20 02:16:32;;;;;;;5.20;3.72;;;;;;;;;;5133438;27;20405;-79
2022/12/20 02:19:01;;;;;;;6.70;3.85;;;;;;;;;;5107284;27;20489;-79
2022/12/20 02:21:35;;;;;;;5.97;3.97;;;;;;;;;;5122272;27;20481;-79
2022/12/20 02:24:20;;;;;;;6.67;4.00;;;;;;;;;;5118689;27;20412;-80
2022/12/20 02:27:28;;;;;;;6.90;4.18;;;9.90;99.90;;;;;;5093066;28;20880;-80
2022/12/20 02:30:34;;;;;;;6.07;4.00;;;9.90;99.90;;;;;;5090016;27;20415;-79
2022/12/20 02:33:02;;;;;;;7.00;4.15;;;;;;;;;;5060764;28;20422;-79
2022/12/20 02:35:30;;;;;;;7.53;4.30;;;;;;;;;;5074757;28;20921;-79
2022/12/20 02:37:58;;;;;;;5.97;3.72;;;;;;;;;;5092125;27;20422;-79
2022/12/20 02:40:26;;;;;;;7.25;4.28;;;;;;;;;;5088116;27;20913;-80
2022/12/20 02:42:58;;;;;;;6.70;3.97;;;;;;;;;;5110732;27;21169;-79
2022/12/20 02:45:27;;;;;;;7.97;4.30;;;;;;;;;;5107439;27;20416;-80
2022/12/20 02:48:10;;;;;;;5.72;4.13;;;;;;;;;;5133052;27;20402;-80
2022/12/20 02:50:39;;;;;;;7.75;4.40;;;;;;;;;;5103937;28;20409;-79
2022/12/20 02:53:06;;;;;;;8.75;4.10;;;;;;;;;;5099018;28;20436;-79
2022/12/20 02:55:38;;;;;;;7.28;4.63;;;;;;;;;;5108206;27;20780;-79
2022/12/20 02:58:27;;;;;;;7.47;4.55;;;;;;;;;;5096708;27;20429;-79
2022/12/20 03:00:55;;;;;;;7.78;4.57;;;;;;;;;;5090832;28;20422;-80
2022/12/20 03:03:22;;;;;;;6.80;4.40;;;;;;;;;;5110509;28;20447;-79
2022/12/20 03:05:48;;;;;;;7.88;4.60;;;;;;;;;;5109734;27;20427;-79
2022/12/20 03:08:15;;;;;;;7.63;4.82;;;;;;;;;;5120526;27;20442;-79
2022/12/20 03:10:41;;;;;;;8.32;5.07;;;;;;;;;;5094010;27;20434;-80
2022/12/20 03:13:07;;;;;;;7.88;5.60;;;;;;;;;;5127643;27;20406;-80
2022/12/20 03:15:33;;;;;;;8.05;5.18;;;;;;;;;;5106663;27;20415;-80
2022/12/20 03:18:00;;;;;;;9.50;4.70;;;;;;;;;;5123547;27;20433;-80
2022/12/20 03:20:26;;;;;;;7.80;4.90;;;;;;;;;;5132542;27;20438;-80
2022/12/20 03:22:52;;;;;;;8.75;5.00;;;;;;;;;;5127092;27;20437;-79
2022/12/20 03:25:18;;;;;;;8.13;5.18;;;;;;;;;;5109039;27;20425;-79
2022/12/20 03:27:47;;;;;;;8.65;5.13;;;;;;;;;;5110326;27;20420;-80
2022/12/20 03:30:13;;;;;;;9.13;5.15;;;;;;;;;;5129239;27;20410;-79
2022/12/20 03:32:39;;;;;;;9.02;5.45;;;;;;;;;;5098141;28;20420;-79
2022/12/20 03:35:05;;;;;;;7.20;4.97;;;;;;;;;;5107955;28;20444;-79
2022/12/20 03:37:32;;;;;;;8.75;5.10;;;;;;;;;;5100520;28;20512;-80
2022/12/20 03:39:58;;;;;;;7.13;4.72;;;;;;;;;;5094866;27;20423;-80
2022/12/20 03:42:24;;;;;;;7.93;4.72;;;;;;;;;;5115025;27;20434;-80
2022/12/20 03:44:50;;;;;;;9.10;5.25;;;;;;;;;;5114966;27;20763;-80
2022/12/20 03:47:16;;;;;;;9.43;5.20;;;;;;;;;;5111372;28;20384;-80
2022/12/20 03:49:42;;;;;;;9.82;5.40;;;;;;;;;;5095656;27;20774;-80
2022/12/20 03:52:10;;;;;;;8.23;5.40;;;;;;;;;;5073570;28;20416;-80
2022/12/20 03:54:36;;;;;;;9.10;4.95;;;;;;;;;;5087249;28;20777;-80
2022/12/20 03:57:02;;;;;;;7.95;4.72;;;;;;;;;;5091000;28;20400;-80
2022/12/20 03:59:28;;;;;;;7.05;4.72;;;;;;;;;;5102085;28;20431;-80
2022/12/20 04:01:54;;;;;;;7.80;4.80;;;;;;;;;;5096930;27;20428;-80
2022/12/20 04:04:20;;;;;;;9.73;4.93;;;;;;;;;;5100470;27;20464;-80
2022/12/20 04:06:47;;;;;;;7.78;4.57;;;;;;;;;;5095762;28;20425;-80
2022/12/20 04:09:13;;;;;;;7.68;5.20;;;;;;;;;;5090860;28;20401;-80
2022/12/20 04:11:39;;;;;;;7.03;4.57;;;;;;;;;;5085578;28;20896;-80
2022/12/20 04:14:05;;;;;;;9.20;5.15;;;;;;;;;;5083480;28;20512;-81
2022/12/20 04:16:32;;;;;;;8.55;5.18;;;;;;;;;;5090068;28;20489;-80
2022/12/20 04:18:58;;;;;;;7.03;5.00;;;;;;;;;;5095554;27;20437;-80
2022/12/20 04:21:25;;;;;;;7.97;5.15;;;;;;;;;;5130911;27;20483;-80
2022/12/20 04:23:51;;;;;;;6.78;4.88;;;;;;;;;;5110280;28;20443;-80
2022/12/20 04:26:18;;;;;;;9.07;5.65;;;;;;;;;;5091822;28;20418;-79
2022/12/20 04:28:44;;;;;;;8.77;5.40;;;;;;;;;;5115436;28;20447;-79
2022/12/20 04:31:10;;;;;;;8.98;5.40;;;;;;;;;;5115276;27;20926;-79
2022/12/20 04:33:36;;;;;;;9.32;5.50;;;;;;;;;;5092034;28;20505;-80
2022/12/20 04:36:02;;;;;;;8.95;5.60;;;;;;;;;;5126536;27;20414;-80
2022/12/20 04:38:28;;;;;;;8.70;5.38;;;;;;;;;;5089064;28;20754;-80
2022/12/20 04:40:55;;;;;;;9.88;5.35;;;;;;;;;;5100716;28;20421;-80
2022/12/20 04:43:24;;;;;;;8.15;5.75;;;;;;;;;;5131534;27;20449;-80
2022/12/20 04:45:51;;;;;;;9.80;5.70;;;;;;;;;;5107213;27;20415;-80
2022/12/20 04:48:18;;;;;;;8.27;5.57;;;;;;;;;;5120359;27;20420;-79
2022/12/20 04:50:47;;;;;;;8.53;5.20;;;;;;;;;;5079636;28;20973;-73
2022/12/20 04:55:58;;;;;;;9.23;5.70;;;;;;;;;;5100028;27;21169;-73
2022/12/20 04:58:24;;;;;;;9.38;5.80;;;;;;;;;;5106415;28;20903;-73
2022/12/20 05:00:51;;;;;;;9.00;5.43;;;;;;;;;;5121117;27;20516;-73
2022/12/20 05:03:21;;;;;;;8.82;5.10;;;;;;;;;;5111965;27;20743;-73
2022/12/20 05:05:47;;;;;;;7.30;5.13;;;;;;;;;;5081570;28;20503;-73
2022/12/20 05:08:13;;;;;;;8.68;5.40;;;;;;;;;;5106464;27;20402;-73
2022/12/20 05:10:39;;;;;;;7.38;5.40;;;;;;;;;;5117932;27;20430;-73
2022/12/20 05:13:06;;;;;;;8.30;5.60;;;;;;;;;;5110599;27;20445;-73
2022/12/20 05:15:32;;;;;;;8.73;5.75;;;;;;;;;;5123839;27;20426;-73
2022/12/20 05:17:59;;;;;;;8.85;5.10;;;;;;;;;;5122685;27;20418;-73
2022/12/20 05:20:31;;;;;;;8.45;5.43;;;;;;;;;;5079984;28;20418;-73
2022/12/20 05:28:30;;;;;;;8.00;5.32;;;;;;;;;;5108480;27;20410;-73
2022/12/20 05:30:56;;;;;;;7.90;5.00;;;;;;;;;;5112316;27;20456;-73
2022/12/20 05:33:22;;;;;;;7.90;5.03;;;;;;;;;;5113723;28;20392;-73
2022/12/20 05:35:48;;;;;;;9.02;5.28;;;;;;;;;;5112360;28;20767;-73
2022/12/20 05:38:14;;;;;;;7.88;4.85;;;;;;;;;;5087062;28;20414;-73
2022/12/20 05:40:40;;;;;;;7.45;4.95;;;;;;;;;;5113423;27;20418;-73
2022/12/20 05:43:07;;;;;;;7.75;5.10;;;;;;;;;;5125907;27;20414;-73
2022/12/20 05:45:33;;;;;;;9.17;5.13;;;;;;;;;;5123749;27;20913;-73
2022/12/20 05:47:59;;;;;;;7.88;4.90;;;;;;;;;;5092994;28;20885;-73
2022/12/20 05:50:25;;;;;;;8.00;4.97;;;;;;;;;;5100586;27;20421;-73
2022/12/20 05:52:51;;;;;;;9.35;4.68;;;;;;;;;;5122156;27;20532;-70
2022/12/20 05:55:17;;;;;;;6.95;4.45;;;;;;;;;;5128118;27;20422;-71
2022/12/20 05:57:43;;;;;;;6.78;4.60;;;;;;;;;;5104377;27;20410;-72
2022/12/20 06:00:10;;;;;;;8.97;5.10;;;;;;;;;;5131080;27;20586;-72
2022/12/20 06:02:36;;;;;;;12.13;6.07;;;;;;;;;;5097466;27;20479;-72
2022/12/20 06:05:02;;;;;;;8.70;4.70;;;;;;;;;;5082362;28;20416;-72
2022/12/20 06:07:28;;;;;;;8.20;5.30;;;;;;;;;;5092444;27;20405;-72
2022/12/20 06:09:55;;;;;;;7.80;5.30;;;;;;;;;;5124858;27;20801;-72
2022/12/20 06:12:21;;;;;;;8.60;5.00;;;;;;;;;;5102802;27;20417;-72
2022/12/20 06:14:48;;;;;;;7.30;4.90;;;;;;;;;;5097843;27;20457;-74
2022/12/20 06:17:14;;;;;;;7.20;4.43;;;;;;;;;;5114760;27;20434;-72
2022/12/20 06:19:40;;;;;;;8.23;5.10;;;;;;;;;;5133329;27;20398;-73
2022/12/20 06:22:07;;;;;;;8.32;5.72;;;;;;;;;;5076827;28;20464;-73
2022/12/20 06:24:34;;;;;;;6.82;4.20;;;;;;;;;;5095459;28;20410;-72
2022/12/20 06:27:00;;;;;;;6.35;4.30;;;;;;;;;;5102420;28;20416;-72
2022/12/20 06:29:26;;;;;;;9.57;6.00;;;;;;;;;;5089752;27;20495;-73
2022/12/20 06:31:52;;;;;;;9.73;6.18;;;;;;;;;;5130866;27;20415;-73
2022/12/20 06:34:19;;;;;;;6.45;4.43;;;;;;;;;;5101460;27;20474;-73
2022/12/20 06:36:45;;;;;;;7.05;4.40;;;;;;;;;;5105403;27;20418;-72
2022/12/20 06:39:11;;;;;;;7.13;4.78;;;;;;;;;;5094548;27;20563;-72
2022/12/20 06:41:39;;;;;;;7.72;5.05;;;;;;;;;;5103678;27;20428;-72
2022/12/20 06:44:05;;;;;;;7.97;5.00;;;;;;;;;;5116966;27;20427;-72
2022/12/20 06:46:31;;;;;;;8.25;5.80;;;;;;;;;;5124136;27;20417;-72
2022/12/20 06:48:57;;;;;;;8.70;5.63;;;;;;;;;;5093780;27;20507;-72
2022/12/20 06:51:23;;;;;;;9.55;6.00;;;;;;;;;;5107352;27;20410;-72
2022/12/20 06:53:49;;;;;;;21.63;7.97;;;;;;;;;;5101089;28;20499;-72
2022/12/20 06:56:15;;;;;;;11.40;6.93;;;;;;;;;;5115568;27;20410;-72
2022/12/20 06:58:41;;;;;;;11.27;7.30;;;;;;;;;;5132318;27;20472;-72
2022/12/20 07:01:08;;;;;;;10.93;7.50;;;;;;;;;;5121070;27;20485;-71
2022/12/20 07:03:34;;;;;;;11.43;8.03;;;;;;;;;;5115378;27;20419;-72
2022/12/20 07:06:00;;;;;;;12.85;8.13;;;;;;;;;;5096259;27;20425;-72
2022/12/20 07:08:26;;;;;;;31.98;10.05;;;;;;;;;;5097588;28;20485;-72
2022/12/20 07:10:53;;;;;;;12.43;8.25;;;;;;;;;;5098707;28;20412;-72
2022/12/20 07:13:19;;;;;;;11.23;8.63;;;;;;;;;;5123265;27;20415;-72
2022/12/20 07:15:45;;;;;;;11.98;8.55;;;;;;;;;;5113747;27;20414;-72
2022/12/20 07:18:11;;;;;;;13.15;8.95;;;;;;;;;;5090901;28;20441;-72
2022/12/20 07:20:37;;;;;;;13.02;9.10;;;;;;;;;;5120428;27;20493;-72
2022/12/20 07:23:03;;;;;;;13.10;9.30;;;;;;;;;;5104387;27;20501;-73
2022/12/20 07:25:30;;;;;;;14.13;9.80;;;;;;;;;;5110185;27;20408;-72
2022/12/20 07:27:56;;;;;;;14.27;9.35;;;;;;;;;;5105065;28;20466;-73
2022/12/20 07:30:22;;;;;;;12.30;9.30;;;;;;;;;;5097745;27;21102;-72
2022/12/20 07:32:48;;;;;;;13.03;9.73;;;;;;;;;;5109070;27;21004;-73
2022/12/20 07:35:15;;;;;;;12.00;9.45;;;;;;;;;;5097765;28;20428;-73
2022/12/20 07:37:41;;;;;;;13.75;9.32;;;;;;;;;;5092096;27;20414;-73
2022/12/20 07:40:08;;;;;;;13.60;9.43;;;;;;;;;;5104138;27;20583;-73
2022/12/20 07:42:34;;;;;;;11.52;9.40;;;;;;;;;;5128602;27;20422;-74
2022/12/20 07:45:00;;;;;;;13.35;10.20;;;;;;;;;;5105637;27;20468;-73
2022/12/20 07:47:26;;;;;;;14.13;10.38;;;;;;;;;;5093533;27;20419;-73
2022/12/20 07:49:52;;;;;;;11.75;9.25;;;;;;;;;;5102210;27;20421;-73
2022/12/20 07:52:21;;;;;;;12.80;9.73;;;;;;;;;;5075916;28;21006;-73
2022/12/20 07:54:50;;;;;;;13.30;9.43;;;;;;;;;;5091675;28;20409;-73
2022/12/20 07:57:29;;;;;;;12.38;9.00;;;;;;;;;;5115685;27;20421;-73
2022/12/20 07:59:56;;;;;;;11.52;9.50;;;;;;;;;;5114672;27;20772;-72
2022/12/20 08:02:49;;;;;;;12.95;9.10;;;;;;;;;;5103760;27;20417;-72
2022/12/20 08:05:16;;;;;;;13.10;9.05;;;;;;;;;;5084223;28;20772;-73
2022/12/20 08:07:43;;;;;;;11.32;8.38;;;;;;;;;;5108999;28;20408;-72
2022/12/20 08:10:11;;;;;;;13.43;8.40;;;;;;;;;;5113429;27;20410;-72
2022/12/20 08:12:38;;;;;;;11.53;8.70;;;;;;;;;;5088186;28;20440;-73
2022/12/20 08:15:04;;;;;;;12.40;7.45;;;;;;;;;;5107804;28;21025;-73
2022/12/20 08:17:30;;;;;;;10.20;6.90;;;;;;;;;;5110633;27;20468;-73
2022/12/20 08:19:56;;;;;;;11.80;6.72;;;;;;;;;;5089784;28;20420;-73
2022/12/20 08:22:23;;;;;;;9.10;5.97;;;;;;;;;;5083911;28;20549;-73
2022/12/20 08:24:49;;;;;;;8.65;6.18;;;;;;;;;;5098710;28;20421;-72
2022/12/20 08:27:15;;;;;;;9.60;6.17;;;;;;;;;;5119441;27;20537;-72
2022/12/20 08:29:41;;;;;;;8.23;5.60;;;;;;;;;;5096852;28;20438;-73
2022/12/20 08:32:07;;;;;;;7.45;5.28;;;;;;;;;;5094037;28;20948;-73
2022/12/20 08:34:33;;;;;;;9.48;5.90;;;;;;;;;;5106828;28;20415;-73
2022/12/20 08:36:59;;;;;;;7.90;5.10;;;;;;;;;;5086612;28;20416;-73
2022/12/20 08:39:25;;;;;;;8.70;5.25;;;;;;;;;;5096835;28;20422;-73
2022/12/20 08:41:51;;;;;;;7.05;5.35;;;;;;;;;;5087813;28;20427;-73
2022/12/20 08:44:17;;;;;;;8.75;5.25;;;;;;;;;;5112581;27;20441;-73
2022/12/20 08:46:43;;;;;;;7.45;4.72;;;;;;;;;;5097919;28;20804;-73
2022/12/20 08:49:09;;;;;;;7.05;4.68;;;;;;;;;;5126355;27;20414;-73
2022/12/20 08:51:35;;;;;;;8.33;4.37;;;;;;;;;;5083997;28;20428;-73
2022/12/20 08:54:02;;;;;;;6.82;4.10;;;;;;;;;;5104907;28;20421;-73
2022/12/20 08:56:28;;;;;;;9.23;4.43;;;;;;;;;;5095826;28;20810;-73
2022/12/20 08:58:54;;;;;;;6.75;4.25;;;;;;;;;;5089925;28;20414;-74
2022/12/20 09:01:21;;;;;;;7.30;4.03;;;;;;;;;;5112988;28;20529;-73
2022/12/20 09:03:48;;;;;;;6.60;4.20;;;;;;;;;;5089754;28;20905;-73
2022/12/20 09:06:17;;;;;;;8.10;4.40;;;;;;;;;;5096613;28;20416;-73
2022/12/20 09:08:43;;;;;;;7.43;4.20;;;;;;;;;;5108899;27;20423;-73
2022/12/20 09:11:11;;;;;;;17.75;4.85;;;;;;;;;;5111881;28;20397;-73
2022/12/20 09:13:38;;;;;;;8.02;4.30;;;;;;;;;;5104292;28;20412;-73
2022/12/20 09:16:05;;;;;;;6.03;3.97;;;;;;;;;;5126744;27;20430;-73
2022/12/20 09:18:31;;;;;;;6.00;3.78;;;;;;;;;;5109594;27;20428;-74
2022/12/20 09:21:01;;;;;;;6.38;4.05;;;;;;;;;;5090904;28;20776;-73
2022/12/20 09:23:28;;;;;;;7.10;3.95;;;;;;;;;;5111441;28;20964;-74
2022/12/20 09:25:54;;;;;;;5.68;3.65;;;;;;;;;;5087320;28;20909;-73
2022/12/20 09:28:21;;;;;;;6.38;3.97;;;;;;;;;;5121304;27;20769;-73
2022/12/20 09:30:47;;;;;;;6.20;3.85;;;;;;;;;;5090150;28;20772;-73
2022/12/20 09:33:13;;;;;;;6.53;3.72;;;;;;;;;;5092473;28;20422;-74
2022/12/20 09:35:46;;;;;;;7.22;4.38;;;;;;;;;;5094839;27;20937;-73
2022/12/20 09:38:12;;;;;;;5.90;3.65;;;;;;;;;;5104562;28;20419;-74
2022/12/20 09:40:44;;;;;;;5.90;3.72;;;;;;;;;;5112817;28;20404;-73
2022/12/20 09:43:11;;;;;;;7.50;3.53;;;;;;;;;;5113195;27;20471;-73
2022/12/20 09:45:37;;;;;;;6.68;3.42;;;;;;;;;;5083803;27;20831;-73
2022/12/20 09:48:04;;;;;;;8.23;3.83;;;;;;;;;;5134181;27;20489;-74
2022/12/20 09:50:49;;;;;;;6.32;3.60;;;;;;;;;;5125527;27;20759;-74
2022/12/20 09:53:19;;;;;;;6.53;3.57;;;;;;;;;;5125869;27;20990;-73
2022/12/20 09:55:58;;;;;;;6.45;3.70;;;;;;;;;;5115593;27;20416;-73
2022/12/20 09:58:27;;;;;;;7.13;3.72;;;;;;;;;;5107204;28;20457;-74
2022/12/20 10:00:53;;;;;;;7.97;3.92;;;;;;;;;;5106115;27;20944;-74
2022/12/20 10:03:22;;;;;;;7.22;3.65;;;;;;;;;;5109071;27;20418;-74
2022/12/20 10:05:51;;;;;;;7.45;3.95;;;;;;;;;;5089118;28;20425;-74
2022/12/20 10:08:32;;;;;;;6.10;3.85;;;;;;;;;;5127522;27;20770;-75
2022/12/20 10:11:13;;;;;;;5.50;3.50;;;;;;;;;;5085349;28;20428;-74
2022/12/20 10:13:48;;;;;;;6.17;3.50;;;;;;;;;;5104514;28;20990;-74
2022/12/20 10:16:24;;;;;;;6.72;3.63;;;;;;;;;;5111441;27;20414;-74
2022/12/20 10:19:05;;;;;;;5.57;3.40;;;;;;;;;;5102135;28;20997;-74
2022/12/20 10:21:31;;;;;;;9.77;3.70;;;;;;;;;;5115230;27;20435;-74
2022/12/20 10:24:00;;;;;;;7.50;3.58;;;;;;;;;;5093787;28;20422;-74
2022/12/20 10:26:27;;;;;;;6.00;3.50;;;;;;;;;;5100978;28;20907;-74
2022/12/20 10:28:53;;;;;;;5.10;3.53;;;;;;;;;;5114445;27;20465;-75
2022/12/20 10:31:19;;;;;;;5.20;3.53;;;;;;;;;;5114723;27;20412;-74
2022/12/20 10:33:45;;;;;;;6.00;3.67;;;;;;;;;;5076593;28;20504;-74
2022/12/20 10:36:21;;;;;;;8.00;3.50;;;;;;;;;;5092522;28;20432;-74
2022/12/20 10:38:48;;;;;;;6.10;3.60;;;;;;;;;;5104443;27;20414;-75
2022/12/20 10:41:15;;;;;;;6.63;4.10;;;;;;;;;;5091610;28;20479;-74
2022/12/20 10:43:47;;;;;;;5.93;3.30;;;;;;;;;;5105916;27;20423;-74
2022/12/20 10:46:15;;;;;;;6.40;3.47;;;;;;;;;;5087720;27;20414;-73
2022/12/20 10:48:42;;;;;;;6.68;3.63;;;;;;;;;;5104999;28;21888;-74
2022/12/20 10:51:11;;;;;;;6.25;3.78;;;;;;;;;;5099992;28;20445;-74
2022/12/20 10:53:49;;;;;;;7.78;3.65;;;;;;;;;;5100206;27;20417;-74
2022/12/20 10:56:21;;;;;;;6.38;3.60;;;;;;;;;;5094375;28;20480;-74
2022/12/20 10:58:52;;;;;;;6.40;3.40;;;;;;;;;;5109927;27;20438;-74
2022/12/20 11:01:47;;;;;;;6.13;3.63;;;;;;;;;;5071842;27;1977885;-72
2022/12/20 11:05:24;;;;;;;6.47;3.45;;;;;;;;;;5083224;28;20409;-72
2022/12/20 11:07:53;;;;;;;6.65;3.70;;;;;;;;;;5046627;27;20428;-72
2022/12/20 11:10:19;;;;;;;6.03;3.58;;;;;;;;;;5033262;27;20443;-72
2022/12/20 11:12:55;;;;;;;6.83;3.77;;;;;;;;;;5046831;27;20500;-73
2022/12/20 11:15:25;;;;;;;5.82;3.60;;;;;;;;;;5078338;27;20432;-72
2022/12/20 11:17:54;;;;;;;7.25;3.70;;;;;;;;;;5030791;28;20810;-72
2022/12/20 11:20:20;;;;;;;8.38;4.68;;;;;;;;;;5079164;27;20441;-72
2022/12/20 11:22:53;;;;;;;7.25;3.83;;;;;;;;;;5043708;27;20456;-81
2022/12/20 11:25:31;;;;;;;6.13;3.80;;;;;;;;;;5048418;27;20424;-83
2022/12/20 11:28:21;;;;;;;5.25;3.60;;;10.80;99.90;;;;;;5075889;27;20948;-81
2022/12/20 11:31:01;;;;;;;7.00;4.20;;;;;;;;;;5035539;27;20420;-82
2022/12/20 11:33:30;;;;;;;8.25;4.25;;;;;;;;;;5070323;27;20436;-82
2022/12/20 11:35:56;;;;;;;6.22;4.07;;;;;;;;;;5035098;27;20432;-82
2022/12/20 11:38:43;;;;;;;7.13;4.10;;;;;;;;;;5064372;27;20430;-82
2022/12/20 11:41:15;;;;;;;5.70;4.00;;;;;;;;;;5040653;27;20426;-82
2022/12/20 11:43:58;;;;;;;6.57;3.97;;;;;;;;;;5066194;28;20490;-83
2022/12/20 11:46:24;;;;;;;6.97;4.13;;;;;;;;;;5029345;27;20925;-81
2022/12/20 11:49:43;;;;;;;7.13;4.55;;;;;;;;;;5113247;27;20375;-81
2022/12/20 11:52:14;;;;;;;6.50;4.88;;;;;;;;;;5088442;28;20423;-82
2022/12/20 11:54:40;;;;;;;9.18;4.63;;;;;;;;;;5106043;28;20425;-73
2022/12/20 11:57:13;;;;;;;8.00;4.72;;;;;;;;;;5090385;28;20417;-73
2022/12/20 11:59:42;;;;;;;9.10;5.10;;;;;;;;;;5104302;28;20425;-73
2022/12/20 12:02:17;;;;;;;9.13;4.90;;;;;;;;;;5089970;28;20443;-82
2022/12/20 12:04:45;;;;;;;9.30;5.63;;;;;;;;;;5108809;28;20416;-82
2022/12/20 12:07:12;;;;;;;7.18;5.10;;;;;;;;;;5103795;28;20986;-82
2022/12/20 12:09:41;;;;;;;9.25;6.03;;;;;;;;;;5086083;28;20435;-75
2022/12/20 12:12:13;;;;;;;8.37;6.20;;;;;;;;;;5087432;28;20885;-75
2022/12/20 12:14:59;;;;;;;8.77;6.10;;;;;;;;;;5105366;28;20421;-75
2022/12/20 12:17:42;;;;;;;10.48;6.55;;;;;;;;;;5100676;28;20425;-74
2022/12/20 12:20:28;;;;;;;9.63;6.82;;;;;;;;;;5130463;27;20807;-75
2022/12/20 12:22:58;;;;;;;12.68;7.22;;;;;;;;;;5086016;28;20440;-83
2022/12/20 12:25:24;;;;;;;11.07;6.60;;;;;;;;;;5099227;28;20413;-83
2022/12/20 12:27:50;;;;;;;10.38;7.05;;;;;;;;;;5082639;28;20482;-83
2022/12/20 12:30:16;;;;;;;9.70;7.20;;;;;;;;;;5077555;28;20760;-82
2022/12/20 12:32:46;;;;;;;10.57;7.15;;;;;;;;;;5101603;28;20420;-84
2022/12/20 12:35:12;;;;;;;11.15;7.05;;;;;;;;;;5088293;28;20818;-82
2022/12/20 12:38:05;;;;;;;11.23;7.32;;;;;;;;;;5089733;28;20507;-83
2022/12/20 12:40:37;;;;;;;9.88;6.78;;;;;;;;;;5105458;28;20427;-83
2022/12/20 12:43:22;;;;;;;23.30;8.73;;;;;;;;;;5102974;28;20417;-83
2022/12/20 12:45:58;;;;;;;10.20;7.97;;;;;;;;;;5080410;28;20814;-83
2022/12/20 12:48:27;;;;;;;11.30;7.95;;;;;;;;;;5104647;28;20446;-83
2022/12/20 12:50:55;;;;;;;12.07;8.40;;;;;;;;;;5084850;28;20850;-83
2022/12/20 12:53:36;;;;;;;12.10;7.90;;;;;;;;;;5110053;28;20489;-83
2022/12/20 12:56:22;;;;;;;10.77;8.00;;;;;;;;;;5085524;28;20505;-83
2022/12/20 12:59:08;;;;;;;16.08;9.40;;;;;;;;;;5086509;28;20421;-83
2022/12/20 13:01:52;;;;;;;11.00;7.85;;;;;;;;;;5082348;28;20916;-82
2022/12/20 13:04:18;;;;;;;11.57;7.72;;;;;;;;;;5089425;28;20425;-83
2022/12/20 13:06:47;;;;;;;11.52;8.25;;;;;;;;;;5090972;28;20429;-83
2022/12/20 13:09:19;;;;;;;12.95;8.40;;;;;;;;;;5086869;28;20509;-83
2022/12/20 13:11:48;;;;;;;12.30;7.43;;;;;;;;;;5066854;28;20421;-83
2022/12/20 13:14:20;;;;;;;11.98;8.52;;;;;;;;;;5090470;28;20421;-82
2022/12/20 13:16:47;;;;;;;10.27;7.88;;;;;;;;;;5064349;28;20438;-83
2022/12/20 13:19:17;;;;;;;12.25;8.43;;;;;;;;;;5078844;28;20441;-82
2022/12/20 13:21:45;;;;;;;11.40;8.18;;;;;;;;;;5081443;28;20501;-74
2022/12/20 13:24:30;;;;;;;12.32;8.30;;;;;;;;;;5074959;28;20417;-74
2022/12/20 13:26:56;;;;;;;11.23;8.30;;;;;;;;;;5075694;28;20401;-74
2022/12/20 13:29:27;;;;;;;12.10;8.15;;;;;;;;;;5074984;28;20464;-75
2022/12/20 13:31:53;;;;;;;11.43;7.97;;;;;;;;;;5067515;28;20479;-75
2022/12/20 13:34:36;;;;;;;11.85;8.75;;;;;;;;;;5090393;28;20413;-75
2022/12/20 13:37:02;;;;;;;13.70;8.40;;;;;;;;;;5072969;28;20928;-74
2022/12/20 13:39:32;;;;;;;12.48;9.65;;;;;;;;;;5074944;28;20448;-74
2022/12/20 13:42:16;;;;;;;10.10;7.85;;;;;;;;;;5088166;28;20414;-74
2022/12/20 13:44:45;;;;;;;11.82;8.60;;;;;;;;;;5089409;28;20418;-75
2022/12/20 13:47:33;;;;;;;12.10;8.52;;;;;;;;;;5080870;28;20970;-74
2022/12/20 13:50:01;;;;;;;13.07;9.13;;;;;;;;;;5093055;28;20436;-74
2022/12/20 13:52:31;;;;;;;11.50;9.05;;;;;;;;;;5095390;28;20436;-74
2022/12/20 13:55:03;;;;;;;12.38;8.70;;;;;;;;;;5090800;27;20423;-74
2022/12/20 13:57:41;;;;;;;12.75;9.55;;;;;;;;;;5092615;28;20419;-75
2022/12/20 14:00:15;;;;;;;12.65;10.00;;;;;;;;;;5110585;28;20418;-74
2022/12/20 14:02:42;;;;;;;11.27;9.55;;;;;;;;;;5076764;28;20756;-71
2022/12/20 14:05:17;;;;;;;13.75;9.93;;;;;;;;;;5101022;28;20416;-71
2022/12/20 14:07:45;;;;;;;12.02;9.98;;;;;;;;;;5092171;28;20423;-75
2022/12/20 14:10:23;;;;;;;13.60;9.95;;;;;;;;;;5092418;28;20495;-73
2022/12/20 14:12:50;;;;;;;12.57;10.25;;;;;;;;;;5088548;28;20918;-73
2022/12/20 14:15:31;;;;;;;13.73;10.55;;;;;;;;;;5075879;28;20408;-72
2022/12/20 14:18:04;;;;;;;14.85;11.10;;;;;;;;;;5090492;28;20432;-73
2022/12/20 14:20:32;;;;;;;15.15;11.18;;;;;;;;;;5090184;28;20423;-73
2022/12/20 14:23:02;;;;;;;14.98;11.63;;;;;;;;;;5079868;27;20761;-73
2022/12/20 14:25:36;;;;;;;16.50;11.90;;;;;;;;;;5089427;28;20911;-74
2022/12/20 14:28:02;;;;;;;13.05;11.18;;;;;;;;;;5087741;28;20426;-74
2022/12/20 14:30:34;;;;;;;15.18;12.60;;;;;;;;;;5093115;28;20416;-74
2022/12/20 14:33:00;;;;;;;14.07;12.10;;;;;;;;;;5084772;28;20532;-74
2022/12/20 14:35:27;;;;;;;16.63;11.90;;;;;;;;;;5084492;28;22073;-73
2022/12/20 14:37:58;;;;;;;15.40;12.15;;;;;;;;;;5082349;28;20421;-74
2022/12/20 14:40:26;;;;;;;14.98;11.77;;;;;;;;;;5087271;28;20470;-73
2022/12/20 14:42:52;;;;;;;17.30;12.80;;;;;;;;;;5092587;28;20927;-73
2022/12/20 14:45:20;;;;;;;15.77;12.70;;;;;;;;;;5094758;28;20503;-73
2022/12/20 14:47:55;;;;;;;16.58;12.55;;;;;;;;;;5094414;28;20473;-73
2022/12/20 14:50:32;;;;;;;17.58;12.98;;;;;;;;;;5076773;28;20469;-73
2022/12/20 14:52:59;;;;;;;15.82;13.23;;;;;;;;;;5081858;28;20421;-73
2022/12/20 14:55:33;;;;;;;18.40;13.63;;;;;;;;;;5088014;28;20923;-74
2022/12/20 14:57:59;;;;;;;18.02;13.20;;;;;;;;;;5074031;28;20427;-73